createdAt,value
2018-07-12T00:00:47.990Z,5.90
2018-07-12T00:03:15.509Z,5.73
2018-07-12T00:05:43.000Z,6.70
2018-07-12T00:08:10.590Z,7.00
2018-07-12T00:10:38.120Z,5.50
2018-07-12T00:13:05.591Z,5.80
2018-07-12T00:15:33.261Z,6.30
2018-07-12T00:18:00.753Z,6.20
2018-07-12T00:20:28.235Z,6.30
2018-07-12T00:22:55.845Z,6.00
2018-07-12T00:25:23.351Z,5.23
2018-07-12T00:27:50.864Z,6.00
2018-07-12T00:30:18.588Z,6.40
2018-07-12T00:32:46.056Z,6.07
2018-07-12T00:35:13.539Z,6.27
2018-07-12T00:37:41.725Z,6.50
2018-07-12T00:40:09.220Z,6.00
2018-07-12T00:42:36.959Z,6.23
2018-07-12T00:45:04.851Z,6.07
2018-07-12T00:47:32.355Z,6.20
2018-07-12T00:50:00.097Z,5.97
2018-07-12T00:52:27.711Z,5.40
2018-07-12T00:54:55.193Z,6.07
2018-07-12T00:57:22.939Z,5.60
2018-07-12T00:59:50.447Z,6.57
2018-07-12T01:02:17.948Z,5.97
2018-07-12T01:04:45.459Z,6.10
2018-07-12T01:07:13.126Z,5.80
2018-07-12T01:09:40.606Z,6.40
2018-07-12T01:12:08.139Z,6.20
2018-07-12T01:14:35.661Z,5.73
2018-07-12T01:17:03.464Z,6.20
2018-07-12T01:19:30.942Z,6.43
2018-07-12T01:21:58.467Z,6.50
2018-07-12T01:24:25.934Z,6.47
2018-07-12T01:26:53.553Z,6.33
2018-07-12T01:29:21.042Z,6.17
2018-07-12T01:31:48.572Z,6.30
2018-07-12T01:34:16.048Z,6.23
2018-07-12T01:36:43.530Z,5.83
2018-07-12T01:39:10.997Z,6.10
2018-07-12T01:41:38.505Z,6.17
2018-07-12T01:44:06.163Z,6.40
2018-07-12T01:46:33.648Z,6.40
2018-07-12T01:49:01.375Z,6.50
2018-07-12T01:51:28.873Z,7.03
2018-07-12T01:53:56.344Z,5.63
2018-07-12T01:56:23.804Z,6.47
2018-07-12T01:58:51.525Z,5.93
2018-07-12T02:01:18.995Z,5.60
2018-07-12T02:03:46.462Z,6.30
2018-07-12T02:06:13.970Z,6.57
2018-07-12T02:08:41.492Z,6.53
2018-07-12T02:11:08.966Z,6.20
2018-07-12T02:13:36.629Z,5.63
2018-07-12T02:16:04.101Z,5.97
2018-07-12T02:18:31.581Z,6.10
2018-07-12T02:20:59.250Z,6.20
2018-07-12T02:23:27.058Z,6.20
2018-07-12T02:25:54.541Z,6.30
2018-07-12T02:28:22.149Z,6.47
2018-07-12T02:30:49.620Z,6.10
2018-07-12T02:33:17.100Z,6.30
2018-07-12T02:35:44.629Z,6.60
2018-07-12T02:38:12.116Z,5.90
2018-07-12T02:40:39.599Z,6.10
2018-07-12T02:43:07.261Z,7.10
2018-07-12T02:45:34.750Z,6.40
2018-07-12T02:48:02.258Z,6.10
2018-07-12T02:50:29.990Z,5.60
2018-07-12T02:52:57.500Z,8.40
2018-07-12T02:55:24.990Z,6.30
2018-07-12T02:57:52.481Z,7.10
2018-07-12T03:00:19.968Z,6.10
2018-07-12T03:02:47.454Z,5.60
2018-07-12T03:05:15.161Z,6.47
2018-07-12T03:07:42.698Z,6.80
2018-07-12T03:10:10.205Z,6.40
2018-07-12T03:12:37.725Z,6.17
2018-07-12T03:15:05.195Z,6.00
2018-07-12T03:17:32.671Z,6.00
2018-07-12T03:20:00.237Z,5.53
2018-07-12T03:22:27.730Z,6.33
2018-07-12T03:24:55.307Z,5.90
2018-07-12T03:27:23.038Z,7.10
2018-07-12T03:29:50.524Z,7.00
2018-07-12T03:32:17.988Z,6.60
2018-07-12T03:34:45.638Z,6.70
2018-07-12T03:37:13.195Z,6.80
2018-07-12T03:39:40.657Z,6.33
2018-07-12T03:42:08.619Z,6.30
2018-07-12T03:44:36.099Z,6.27
2018-07-12T03:47:03.582Z,7.03
2018-07-12T03:49:31.090Z,7.20
2018-07-12T03:51:58.559Z,7.00
2018-07-12T03:54:26.111Z,7.40
2018-07-12T03:56:53.697Z,7.43
2018-07-12T03:59:21.175Z,8.30
2018-07-12T04:01:48.642Z,8.23
2018-07-12T04:04:16.135Z,8.10
2018-07-12T04:06:43.594Z,7.63
2018-07-12T04:09:11.070Z,7.97
2018-07-12T04:11:38.561Z,7.83
2018-07-12T04:14:06.027Z,7.77
2018-07-12T04:16:33.770Z,8.47
2018-07-12T04:19:01.292Z,8.53
2018-07-12T04:21:28.769Z,8.50
2018-07-12T04:23:56.241Z,7.97
2018-07-12T04:26:24.191Z,7.50
2018-07-12T04:28:51.672Z,7.60
2018-07-12T04:31:19.151Z,8.40
2018-07-12T04:33:46.663Z,8.47
2018-07-12T04:36:14.152Z,8.87
2018-07-12T04:38:41.626Z,8.83
2018-07-12T04:41:09.294Z,10.17
2018-07-12T04:43:37.098Z,9.20
2018-07-12T04:46:04.825Z,10.23
2018-07-12T04:48:32.688Z,9.60
2018-07-12T04:51:00.180Z,9.47
2018-07-12T04:53:27.680Z,9.13
2018-07-12T04:55:55.538Z,10.27
2018-07-12T04:58:23.091Z,10.50
2018-07-12T05:00:50.521Z,9.07
2018-07-12T05:03:18.461Z,11.10
2018-07-12T05:05:45.947Z,9.80
2018-07-12T05:08:13.448Z,11.70
2018-07-12T05:10:41.122Z,11.20
2018-07-12T05:13:08.851Z,12.30
2018-07-12T05:15:36.329Z,11.10
2018-07-12T05:18:04.047Z,13.77
2018-07-12T05:20:31.532Z,11.47
2018-07-12T05:22:59.026Z,12.43
2018-07-12T05:25:26.773Z,12.00
2018-07-12T05:27:54.246Z,12.67
2018-07-12T05:30:21.724Z,11.77
2018-07-12T05:32:49.453Z,11.00
2018-07-12T05:35:16.930Z,10.80
2018-07-12T05:37:45.702Z,10.97
2018-07-12T05:40:14.514Z,10.57
2018-07-12T05:42:43.325Z,10.30
2018-07-12T05:45:12.128Z,11.17
2018-07-12T05:47:40.950Z,10.77
2018-07-12T05:50:09.783Z,10.23
2018-07-12T05:52:38.613Z,11.00
2018-07-12T05:55:07.440Z,11.00
2018-07-12T05:57:36.350Z,10.27
2018-07-12T06:00:05.848Z,9.77
2018-07-12T06:02:34.867Z,8.67
2018-07-12T06:05:03.686Z,8.73
2018-07-12T06:07:32.611Z,8.67
2018-07-12T06:10:01.466Z,10.10
2018-07-12T06:12:30.245Z,9.70
2018-07-12T06:14:59.047Z,10.00
2018-07-12T06:17:27.965Z,9.30
2018-07-12T06:19:56.742Z,9.07
2018-07-12T06:22:25.568Z,10.60
2018-07-12T06:24:54.422Z,10.40
2018-07-12T06:27:23.234Z,10.60
2018-07-12T06:29:52.123Z,10.13
2018-07-12T06:32:20.961Z,9.37
2018-07-12T06:34:49.762Z,9.20
2018-07-12T06:37:18.544Z,10.10
2018-07-12T06:39:47.395Z,9.20
2018-07-12T06:42:16.188Z,8.90
2018-07-12T06:44:45.227Z,8.63
2018-07-12T06:47:14.359Z,9.50
2018-07-12T06:49:43.129Z,9.20
2018-07-12T06:52:11.957Z,9.13
2018-07-12T06:54:40.857Z,8.90
2018-07-12T06:57:09.646Z,10.03
2018-07-12T06:59:38.506Z,9.17
2018-07-12T07:02:07.891Z,9.27
2018-07-12T07:04:36.666Z,9.27
2018-07-12T07:07:05.503Z,9.63
2018-07-12T07:09:35.086Z,7.93
2018-07-12T07:12:03.962Z,9.27
2018-07-12T07:14:32.810Z,8.53
2018-07-12T07:17:01.597Z,9.30
2018-07-12T07:19:30.423Z,8.57
2018-07-12T07:21:59.242Z,9.07
2018-07-12T07:24:28.211Z,9.67
2018-07-12T07:26:57.021Z,8.53
2018-07-12T07:29:25.817Z,9.03
2018-07-12T07:31:55.054Z,8.93
2018-07-12T07:34:23.845Z,9.00
2018-07-12T07:36:52.762Z,9.53
2018-07-12T07:39:21.777Z,9.47
2018-07-12T07:41:50.622Z,8.20
2018-07-12T07:44:19.403Z,8.07
2018-07-12T07:46:48.500Z,8.67
2018-07-12T07:49:17.322Z,8.10
2018-07-12T07:51:46.244Z,8.07
2018-07-12T07:54:15.250Z,8.40
2018-07-12T07:56:44.080Z,9.00
2018-07-12T07:59:12.866Z,9.23
2018-07-12T08:01:41.709Z,9.70
2018-07-12T08:04:10.528Z,9.10
2018-07-12T08:06:39.335Z,9.00
2018-07-12T08:09:08.365Z,8.30
2018-07-12T08:11:37.158Z,7.20
2018-07-12T08:14:05.955Z,9.27
2018-07-12T08:16:34.776Z,8.90
2018-07-12T08:19:03.585Z,7.50
2018-07-12T08:21:32.414Z,8.33
2018-07-12T08:24:01.236Z,6.53
2018-07-12T08:26:30.065Z,6.83
2018-07-12T08:28:58.868Z,7.33
2018-07-12T08:31:27.737Z,6.63
2018-07-12T08:33:56.506Z,6.27
2018-07-12T08:36:25.310Z,6.70
2018-07-12T08:38:54.114Z,6.50
2018-07-12T08:41:22.905Z,6.20
2018-07-12T08:43:51.670Z,8.47
2018-07-12T08:46:20.509Z,6.20
2018-07-12T08:48:49.309Z,7.57
2018-07-12T08:51:18.100Z,7.30
2018-07-12T08:53:47.179Z,5.50
2018-07-12T08:56:15.954Z,4.83
2018-07-12T08:58:44.737Z,5.20
2018-07-12T09:01:13.917Z,5.10
2018-07-12T09:03:42.715Z,4.97
2018-07-12T09:06:11.522Z,7.50
2018-07-12T09:08:40.527Z,8.77
2018-07-12T09:11:09.339Z,8.47
2018-07-12T09:13:38.150Z,5.07
2018-07-12T09:16:06.977Z,10.63
2018-07-12T09:18:35.764Z,6.10
2018-07-12T09:21:04.555Z,5.57
2018-07-12T09:23:33.562Z,5.70
2018-07-12T09:26:02.400Z,10.30
2018-07-12T09:28:31.210Z,6.57
2018-07-12T09:31:00.143Z,7.80
2018-07-12T09:33:28.943Z,5.50
2018-07-12T09:35:57.893Z,5.57
2018-07-12T09:38:44.537Z,6.40
2018-07-12T09:41:13.345Z,4.30
2018-07-12T09:43:42.989Z,4.30
2018-07-12T09:46:12.255Z,4.10
2018-07-12T09:48:42.220Z,4.40
2018-07-12T09:51:11.516Z,4.43
2018-07-12T09:53:41.454Z,4.67
2018-07-12T09:56:10.352Z,8.20
2018-07-12T09:58:39.058Z,4.53
2018-07-12T10:01:13.201Z,4.70
2018-07-12T10:03:47.246Z,4.43
2018-07-12T10:06:21.365Z,5.90
2018-07-12T10:08:57.125Z,4.43
2018-07-12T10:11:31.641Z,3.87
2018-07-12T10:14:05.753Z,5.10
2018-07-12T10:16:39.844Z,3.73
2018-07-12T10:19:08.655Z,5.90
2018-07-12T10:21:37.468Z,3.37
2018-07-12T10:24:06.668Z,3.03
2018-07-12T10:26:35.444Z,3.20
2018-07-12T10:29:04.287Z,3.10
2018-07-12T10:31:33.084Z,3.43
2018-07-12T10:34:01.896Z,4.73
2018-07-12T10:36:30.763Z,3.77
2018-07-12T10:38:59.556Z,3.40
2018-07-12T10:41:28.325Z,4.47
2018-07-12T10:43:57.152Z,2.90
2018-07-12T10:46:26.048Z,5.80
2018-07-12T10:48:54.853Z,3.30
2018-07-12T10:51:23.639Z,5.33
2018-07-12T10:53:52.458Z,4.20
2018-07-12T10:56:21.209Z,5.30
2018-07-12T10:58:50.036Z,3.90
2018-07-12T11:01:19.231Z,4.03
2018-07-12T11:03:47.995Z,3.23
2018-07-12T11:06:16.779Z,3.20
2018-07-12T11:08:45.666Z,3.97
2018-07-12T11:11:14.068Z,3.10
2018-07-12T11:13:52.462Z,4.00
2018-07-12T11:16:21.314Z,3.90
2018-07-12T11:18:50.297Z,3.70
2018-07-12T11:21:19.107Z,3.37
2018-07-12T11:23:47.897Z,5.40
2018-07-12T11:26:16.666Z,4.90
2018-07-12T11:28:45.477Z,10.50
2018-07-12T11:31:14.296Z,3.30
2018-07-12T11:33:44.380Z,3.80
2018-07-12T11:36:13.349Z,3.70
2018-07-12T11:38:43.204Z,4.00
2018-07-12T11:41:13.264Z,4.20
2018-07-12T11:43:42.134Z,4.87
2018-07-12T11:46:12.190Z,5.50
2018-07-12T11:48:41.919Z,5.37
2018-07-12T11:51:10.846Z,7.27
2018-07-12T11:53:39.650Z,7.37
2018-07-12T11:56:08.505Z,10.03
2018-07-12T11:58:37.409Z,4.53
2018-07-12T12:01:06.192Z,4.33
2018-07-12T12:03:35.136Z,5.20
2018-07-12T12:06:04.075Z,4.63
2018-07-12T12:08:32.870Z,4.30
2018-07-12T12:11:01.710Z,6.00
2018-07-12T12:13:30.516Z,6.67
2018-07-12T12:15:59.314Z,5.80
2018-07-12T12:18:28.174Z,3.60
2018-07-12T12:20:57.026Z,3.73
2018-07-12T12:23:25.859Z,4.23
2018-07-12T12:25:54.742Z,4.30
2018-07-12T12:28:23.654Z,4.70
2018-07-12T12:30:52.008Z,4.60
2018-07-12T12:33:20.778Z,4.80
2018-07-12T12:35:49.592Z,5.23
2018-07-12T12:38:18.413Z,9.97
2018-07-12T12:40:47.216Z,10.60
2018-07-12T12:43:16.017Z,7.43
2018-07-12T12:45:44.797Z,6.00
2018-07-12T12:48:13.570Z,5.27
2018-07-12T12:50:41.954Z,5.70
2018-07-12T12:53:10.781Z,6.30
2018-07-12T12:55:39.551Z,5.30
2018-07-12T12:58:08.764Z,5.50
2018-07-12T13:00:37.543Z,12.40
2018-07-12T13:03:06.374Z,7.97
2018-07-12T13:05:35.209Z,5.70
2018-07-12T13:08:04.071Z,5.57
2018-07-12T13:10:32.938Z,6.30
2018-07-12T13:13:01.867Z,6.07
2018-07-12T13:15:30.656Z,5.00
2018-07-12T13:17:59.476Z,6.00
2018-07-12T13:20:28.469Z,6.70
2018-07-12T13:22:57.377Z,6.60
2018-07-12T13:25:26.206Z,7.40
2018-07-12T13:27:55.409Z,8.07
2018-07-12T13:30:24.082Z,8.30
2018-07-12T13:32:52.889Z,7.40
2018-07-12T13:35:21.822Z,7.17
2018-07-12T13:37:50.594Z,6.87
2018-07-12T13:40:19.013Z,6.37
2018-07-12T13:42:48.212Z,7.73
2018-07-12T13:45:17.021Z,7.30
2018-07-12T13:47:45.836Z,6.67
2018-07-12T13:50:14.823Z,8.03
2018-07-12T13:52:43.587Z,6.23
2018-07-12T13:55:12.371Z,6.23
2018-07-12T13:57:41.423Z,6.80
2018-07-12T14:00:10.206Z,6.80
2018-07-12T14:02:39.191Z,6.73
2018-07-12T14:05:08.097Z,8.37
2018-07-12T14:07:36.937Z,6.40
2018-07-12T14:10:06.050Z,8.40
2018-07-12T14:12:34.847Z,5.67
2018-07-12T14:17:43.989Z,5.50
2018-07-12T14:20:12.932Z,7.43
2018-07-12T14:22:41.730Z,7.30
2018-07-12T14:25:10.548Z,7.30
2018-07-12T14:27:39.352Z,7.20
2018-07-12T14:30:08.208Z,7.30
2018-07-12T14:32:37.013Z,6.70
2018-07-12T14:35:05.996Z,7.90
2018-07-12T14:37:34.819Z,6.47
2018-07-12T14:40:03.829Z,6.50
2018-07-12T14:42:32.709Z,6.50
2018-07-12T14:45:01.542Z,10.27
2018-07-12T14:47:30.375Z,6.13
2018-07-12T14:49:58.889Z,5.57
2018-07-12T14:52:27.672Z,6.57
2018-07-12T14:54:56.090Z,5.10
2018-07-12T14:57:24.861Z,6.37
2018-07-12T14:59:53.622Z,7.10
2018-07-12T15:02:22.448Z,6.80
2018-07-12T15:04:51.241Z,5.70
2018-07-12T15:07:20.094Z,5.80
2018-07-12T15:09:48.935Z,5.30
2018-07-12T15:12:17.762Z,7.27
2018-07-12T15:14:46.574Z,7.80
2018-07-12T15:17:15.414Z,8.73
2018-07-12T15:19:44.204Z,7.40
2018-07-12T15:22:12.593Z,6.63
2018-07-12T15:24:41.482Z,7.90
2018-07-12T15:27:10.270Z,6.10
2018-07-12T15:29:39.292Z,7.80
2018-07-12T15:32:08.987Z,6.70
2018-07-12T15:34:37.825Z,6.37
2018-07-12T15:37:06.679Z,6.10
2018-07-12T15:39:35.115Z,5.80
2018-07-12T15:42:04.003Z,5.90
2018-07-12T15:44:32.399Z,6.83
2018-07-12T15:47:01.424Z,7.90
2018-07-12T15:49:29.798Z,5.70
2018-07-12T15:51:58.602Z,9.40
2018-07-12T15:54:27.096Z,5.93
2018-07-12T15:56:55.898Z,9.20
2018-07-12T15:59:24.301Z,10.80
2018-07-12T16:01:53.021Z,9.43
2018-07-12T16:04:21.504Z,7.43
2018-07-12T16:06:49.912Z,12.00
2018-07-12T16:09:18.766Z,9.87
2018-07-12T16:11:47.617Z,10.30
2018-07-12T16:14:16.009Z,9.70
2018-07-12T16:16:44.419Z,8.40
2018-07-12T16:19:12.871Z,8.63
2018-07-12T16:21:41.283Z,6.73
2018-07-12T16:24:10.301Z,8.20
2018-07-12T16:26:38.755Z,9.00
2018-07-12T16:29:07.189Z,7.63
2018-07-12T16:31:36.565Z,11.27
2018-07-12T16:34:04.984Z,11.30
2018-07-12T16:36:33.376Z,10.70
2018-07-12T16:39:02.389Z,9.27
2018-07-12T16:41:30.803Z,33.80
2018-07-12T16:45:28.908Z,11.00
2018-07-12T16:47:57.825Z,29.53
2018-07-12T16:50:26.627Z,44.27
2018-07-12T16:52:55.262Z,32.73
2018-07-12T16:55:24.098Z,20.90
2018-07-12T16:57:52.994Z,27.30
2018-07-12T17:00:21.848Z,23.93
2018-07-12T17:02:50.701Z,11.80
2018-07-12T17:05:19.558Z,52.40
2018-07-12T17:07:48.552Z,82.80
2018-07-12T17:10:17.375Z,44.23
2018-07-12T17:12:46.310Z,12.50
2018-07-12T17:15:15.102Z,13.50
2018-07-12T17:17:43.965Z,21.33
2018-07-12T17:20:12.805Z,9.20
2018-07-12T17:22:41.864Z,18.90
2018-07-12T17:25:10.698Z,13.60
2018-07-12T17:27:39.089Z,12.57
2018-07-12T17:30:08.042Z,9.40
2018-07-12T17:32:36.838Z,8.50
2018-07-12T17:35:05.294Z,11.00
2018-07-12T17:37:34.467Z,8.70
2018-07-12T17:40:03.373Z,8.20
2018-07-12T17:42:31.762Z,8.60
2018-07-12T17:45:00.666Z,9.13
2018-07-12T17:47:29.683Z,9.30
2018-07-12T17:49:57.988Z,10.20
2018-07-12T17:52:26.866Z,13.60
2018-07-12T17:54:55.246Z,8.93
2018-07-12T17:57:23.652Z,9.50
2018-07-12T17:59:52.470Z,10.90
2018-07-12T18:02:20.877Z,12.37
2018-07-12T18:04:49.697Z,9.67
2018-07-12T18:07:18.161Z,10.37
2018-07-12T18:09:46.973Z,9.67
2018-07-12T18:12:15.803Z,10.80
2018-07-12T18:14:44.742Z,10.03
2018-07-12T18:17:13.527Z,10.80
2018-07-12T18:19:42.340Z,10.60
2018-07-12T18:22:10.872Z,8.90
2018-07-12T18:24:39.262Z,9.27
2018-07-12T18:27:08.137Z,8.80
2018-07-12T18:29:36.969Z,11.60
2018-07-12T18:32:05.694Z,8.53
2018-07-12T18:34:34.609Z,9.50
2018-07-12T18:37:03.099Z,10.40
2018-07-12T18:39:31.905Z,9.87
2018-07-12T18:42:00.740Z,9.03
2018-07-12T18:44:29.188Z,8.47
2018-07-12T18:46:57.982Z,9.07
2018-07-12T18:49:26.821Z,9.43
2018-07-12T18:51:55.308Z,9.30
2018-07-12T18:54:24.112Z,10.30
2018-07-12T18:56:52.902Z,9.87
2018-07-12T18:59:21.911Z,10.63
2018-07-12T19:01:50.771Z,11.17
2018-07-12T19:04:19.600Z,11.50
2018-07-12T19:06:48.217Z,11.00
2018-07-12T19:09:17.036Z,10.63
2018-07-12T19:11:45.886Z,12.17
2018-07-12T19:14:15.053Z,12.80
2018-07-12T19:16:43.880Z,13.30
2018-07-12T19:19:12.742Z,12.10
2018-07-12T19:21:41.576Z,14.53
2018-07-12T19:24:10.593Z,14.90
2018-07-12T19:26:39.407Z,14.80
2018-07-12T19:29:08.613Z,14.80
2018-07-12T19:31:37.513Z,12.57
2018-07-12T19:34:06.316Z,10.30
2018-07-12T19:36:35.493Z,11.30
2018-07-12T19:39:06.288Z,11.07
2018-07-12T19:41:35.165Z,10.80
2018-07-12T19:44:03.636Z,10.30
2018-07-12T19:46:32.061Z,11.10
2018-07-12T19:49:00.909Z,9.70
2018-07-12T19:51:30.016Z,9.77
2018-07-12T19:53:58.429Z,8.70
2018-07-12T19:56:27.368Z,8.20
2018-07-12T19:58:56.371Z,9.33
2018-07-12T20:01:25.256Z,8.37
2018-07-12T20:03:54.159Z,8.63
2018-07-12T20:06:22.984Z,8.73
2018-07-12T20:08:51.882Z,8.80
2018-07-12T20:11:20.325Z,8.40
2018-07-12T20:13:49.163Z,8.40
2018-07-12T20:16:17.997Z,8.27
2018-07-12T20:18:46.788Z,8.53
2018-07-12T20:21:15.904Z,9.17
2018-07-12T20:23:44.743Z,8.83
2018-07-12T20:26:13.526Z,8.27
2018-07-12T20:28:42.481Z,7.97
2018-07-12T20:31:11.311Z,8.03
2018-07-12T20:33:40.263Z,8.60
2018-07-12T20:36:08.774Z,8.60
2018-07-12T20:38:37.576Z,9.13
2018-07-12T20:41:06.424Z,8.90
2018-07-12T20:43:35.247Z,8.63
2018-07-12T20:46:04.119Z,8.80
2018-07-12T20:48:32.929Z,8.60
2018-07-12T20:51:01.876Z,8.77
2018-07-12T20:53:30.683Z,8.20
2018-07-12T20:55:59.538Z,9.10
2018-07-12T20:58:28.105Z,8.67
2018-07-12T21:00:57.022Z,8.80
2018-07-12T21:03:25.736Z,7.77
2018-07-12T21:05:54.631Z,8.50
2018-07-12T21:08:23.402Z,9.73
2018-07-12T21:10:52.196Z,7.90
2018-07-12T21:13:21.044Z,8.70
2018-07-12T21:15:49.829Z,8.33
2018-07-12T21:18:18.619Z,8.40
2018-07-12T21:20:47.427Z,9.40
2018-07-12T21:23:16.216Z,8.27
2018-07-12T21:25:45.083Z,8.60
2018-07-12T21:28:13.904Z,8.47
2018-07-12T21:30:42.693Z,9.70
2018-07-12T21:33:11.518Z,9.80
2018-07-12T21:35:40.299Z,9.20
2018-07-12T21:38:09.087Z,9.03
2018-07-12T21:40:37.863Z,10.07
2018-07-12T21:43:06.698Z,9.60
2018-07-12T21:45:35.525Z,9.10
2018-07-12T21:48:04.452Z,9.27
2018-07-12T21:50:33.345Z,8.50
2018-07-12T21:53:02.146Z,10.07
2018-07-12T21:55:30.937Z,8.47
2018-07-12T21:58:00.104Z,8.33
2018-07-12T22:00:31.458Z,9.63
2018-07-12T22:03:00.365Z,9.20
2018-07-12T22:05:29.623Z,10.50
2018-07-12T22:08:10.529Z,10.10
2018-07-12T22:10:39.517Z,8.97
2018-07-12T22:13:08.393Z,10.60
2018-07-12T22:15:37.176Z,9.73
2018-07-12T22:18:06.046Z,8.70
2018-07-12T22:20:34.852Z,9.40
2018-07-12T22:23:03.558Z,9.17
2018-07-12T22:25:32.975Z,8.10
2018-07-12T22:28:01.806Z,9.10
2018-07-12T22:30:30.935Z,8.07
2018-07-12T22:33:01.020Z,9.27
2018-07-12T22:35:29.841Z,8.43
2018-07-12T22:37:59.825Z,8.87
2018-07-12T22:40:29.154Z,8.20
2018-07-12T22:42:58.223Z,8.10
2018-07-12T22:45:27.022Z,8.80
2018-07-12T22:47:56.169Z,8.70
2018-07-12T22:50:24.970Z,9.50
2018-07-12T22:52:53.802Z,9.20
2018-07-12T22:55:22.813Z,9.03
2018-07-12T22:57:51.601Z,8.87
2018-07-12T23:00:20.383Z,8.40
2018-07-12T23:02:49.244Z,8.43
2018-07-12T23:05:18.020Z,10.00
2018-07-12T23:07:46.790Z,8.87
2018-07-12T23:10:15.864Z,9.20
2018-07-12T23:12:44.671Z,9.03
2018-07-12T23:15:13.451Z,8.40
2018-07-12T23:17:42.588Z,8.90
2018-07-12T23:20:11.354Z,8.20
2018-07-12T23:22:40.167Z,10.07
2018-07-12T23:25:08.991Z,9.50
2018-07-12T23:27:37.769Z,8.63
2018-07-12T23:30:06.593Z,9.20
2018-07-12T23:32:35.398Z,8.37
2018-07-12T23:35:04.216Z,9.00
2018-07-12T23:37:33.009Z,9.50
2018-07-12T23:40:01.809Z,8.07
2018-07-12T23:42:30.622Z,8.10
2018-07-12T23:44:59.392Z,9.00
2018-07-12T23:47:28.302Z,7.77
2018-07-12T23:49:56.706Z,8.87
2018-07-12T23:52:25.478Z,8.37
2018-07-12T23:54:54.281Z,8.17
2018-07-12T23:57:23.081Z,9.33
2018-07-12T23:59:51.966Z,7.87
